sensor_id;sensor_type;location;lat;lon;timestamp;P1;durP1;ratioP1;P2;durP2;ratioP2
16270;SDS011;8243;49.048;8.396;2022-07-29T00:02:14;4.27;;;3.83;;
16270;SDS011;8243;49.048;8.396;2022-07-29T00:04:40;4.43;;;3.90;;
16270;SDS011;8243;49.048;8.396;2022-07-29T00:07:06;4.90;;;3.90;;
16270;SDS011;8243;49.048;8.396;2022-07-29T00:09:32;4.40;;;4.00;;
16270;SDS011;8243;49.048;8.396;2022-07-29T00:11:58;5.77;;;3.90;;
16270;SDS011;8243;49.048;8.396;2022-07-29T00:14:25;7.30;;;4.40;;
16270;SDS011;8243;49.048;8.396;2022-07-29T00:16:51;4.67;;;4.00;;
16270;SDS011;8243;49.048;8.396;2022-07-29T00:19:17;4.07;;;3.77;;
16270;SDS011;8243;49.048;8.396;2022-07-29T00:21:43;4.73;;;4.13;;
16270;SDS011;8243;49.048;8.396;2022-07-29T00:24:20;5.03;;;4.13;;
16270;SDS011;8243;49.048;8.396;2022-07-29T00:26:46;4.83;;;3.77;;
16270;SDS011;8243;49.048;8.396;2022-07-29T00:29:12;5.60;;;4.27;;
16270;SDS011;8243;49.048;8.396;2022-07-29T00:31:38;4.63;;;4.07;;
16270;SDS011;8243;49.048;8.396;2022-07-29T00:34:03;4.17;;;3.87;;
16270;SDS011;8243;49.048;8.396;2022-07-29T00:36:31;5.47;;;3.90;;
16270;SDS011;8243;49.048;8.396;2022-07-29T00:38:56;6.67;;;4.20;;
16270;SDS011;8243;49.048;8.396;2022-07-29T00:41:22;6.77;;;4.23;;
16270;SDS011;8243;49.048;8.396;2022-07-29T00:43:48;7.97;;;4.40;;
16270;SDS011;8243;49.048;8.396;2022-07-29T00:46:14;5.93;;;4.10;;
16270;SDS011;8243;49.048;8.396;2022-07-29T00:48:39;4.30;;;3.90;;
16270;SDS011;8243;49.048;8.396;2022-07-29T00:51:05;4.67;;;4.27;;
16270;SDS011;8243;49.048;8.396;2022-07-29T00:53:32;5.10;;;4.20;;
16270;SDS011;8243;49.048;8.396;2022-07-29T00:55:58;5.30;;;4.00;;
16270;SDS011;8243;49.048;8.396;2022-07-29T00:58:24;5.97;;;4.30;;
16270;SDS011;8243;49.048;8.396;2022-07-29T01:00:54;5.73;;;4.07;;
16270;SDS011;8243;49.048;8.396;2022-07-29T01:03:20;5.57;;;4.10;;
16270;SDS011;8243;49.048;8.396;2022-07-29T01:05:45;7.40;;;4.70;;
16270;SDS011;8243;49.048;8.396;2022-07-29T01:08:15;5.63;;;4.40;;
16270;SDS011;8243;49.048;8.396;2022-07-29T01:10:41;5.63;;;4.30;;
16270;SDS011;8243;49.048;8.396;2022-07-29T01:13:10;4.90;;;4.40;;
16270;SDS011;8243;49.048;8.396;2022-07-29T01:15:38;6.10;;;4.57;;
16270;SDS011;8243;49.048;8.396;2022-07-29T01:27:03;5.00;;;4.50;;
16270;SDS011;8243;49.048;8.396;2022-07-29T01:29:59;5.10;;;3.93;;
16270;SDS011;8243;49.048;8.396;2022-07-29T01:32:28;4.27;;;3.90;;
16270;SDS011;8243;49.048;8.396;2022-07-29T01:35:03;6.33;;;4.47;;
16270;SDS011;8243;49.048;8.396;2022-07-29T01:37:52;5.37;;;4.87;;
16270;SDS011;8243;49.048;8.396;2022-07-29T01:40:33;4.97;;;4.47;;
16270;SDS011;8243;49.048;8.396;2022-07-29T01:43:10;4.60;;;4.20;;
16270;SDS011;8243;49.048;8.396;2022-07-29T01:45:57;5.07;;;4.37;;
16270;SDS011;8243;49.048;8.396;2022-07-29T01:48:31;8.50;;;4.60;;
16270;SDS011;8243;49.048;8.396;2022-07-29T01:51:02;5.63;;;4.60;;
16270;SDS011;8243;49.048;8.396;2022-07-29T01:54:19;5.03;;;4.63;;
16270;SDS011;8243;49.048;8.396;2022-07-29T01:56:38;4.73;;;4.30;;
16270;SDS011;8243;49.048;8.396;2022-07-29T01:59:06;4.53;;;4.10;;
16270;SDS011;8243;49.048;8.396;2022-07-29T02:01:34;5.57;;;4.63;;
16270;SDS011;8243;49.048;8.396;2022-07-29T02:04:04;5.83;;;4.87;;
16270;SDS011;8243;49.048;8.396;2022-07-29T02:06:33;5.00;;;4.60;;
16270;SDS011;8243;49.048;8.396;2022-07-29T02:09:02;8.77;;;5.20;;
16270;SDS011;8243;49.048;8.396;2022-07-29T02:11:31;4.93;;;4.50;;
16270;SDS011;8243;49.048;8.396;2022-07-29T02:13:59;5.17;;;4.77;;
16270;SDS011;8243;49.048;8.396;2022-07-29T02:16:26;5.73;;;4.97;;
16270;SDS011;8243;49.048;8.396;2022-07-29T02:18:56;8.07;;;5.20;;
16270;SDS011;8243;49.048;8.396;2022-07-29T02:21:24;5.83;;;5.23;;
16270;SDS011;8243;49.048;8.396;2022-07-29T02:23:51;5.67;;;5.13;;
16270;SDS011;8243;49.048;8.396;2022-07-29T02:26:19;5.17;;;4.67;;
16270;SDS011;8243;49.048;8.396;2022-07-29T02:28:47;5.40;;;4.90;;
16270;SDS011;8243;49.048;8.396;2022-07-29T02:31:15;8.87;;;5.10;;
16270;SDS011;8243;49.048;8.396;2022-07-29T02:33:43;5.40;;;4.87;;
16270;SDS011;8243;49.048;8.396;2022-07-29T02:36:11;5.50;;;5.00;;
16270;SDS011;8243;49.048;8.396;2022-07-29T02:38:38;6.27;;;4.97;;
16270;SDS011;8243;49.048;8.396;2022-07-29T02:41:23;5.50;;;5.10;;
16270;SDS011;8243;49.048;8.396;2022-07-29T02:43:56;5.00;;;4.60;;
16270;SDS011;8243;49.048;8.396;2022-07-29T02:46:27;5.70;;;5.13;;
16270;SDS011;8243;49.048;8.396;2022-07-29T02:49:15;5.60;;;5.10;;
16270;SDS011;8243;49.048;8.396;2022-07-29T02:55:18;5.87;;;5.30;;
16270;SDS011;8243;49.048;8.396;2022-07-29T02:57:51;6.60;;;5.27;;
16270;SDS011;8243;49.048;8.396;2022-07-29T03:00:31;6.07;;;5.57;;
16270;SDS011;8243;49.048;8.396;2022-07-29T03:03:00;6.30;;;5.77;;
16270;SDS011;8243;49.048;8.396;2022-07-29T03:05:30;5.83;;;5.33;;
16270;SDS011;8243;49.048;8.396;2022-07-29T03:08:06;5.90;;;5.37;;
16270;SDS011;8243;49.048;8.396;2022-07-29T03:10:34;6.70;;;5.50;;
16270;SDS011;8243;49.048;8.396;2022-07-29T03:13:01;8.00;;;5.77;;
16270;SDS011;8243;49.048;8.396;2022-07-29T03:15:28;6.23;;;5.63;;
16270;SDS011;8243;49.048;8.396;2022-07-29T03:17:54;8.77;;;5.47;;
16270;SDS011;8243;49.048;8.396;2022-07-29T03:20:24;6.27;;;5.67;;
16270;SDS011;8243;49.048;8.396;2022-07-29T03:22:50;5.80;;;5.30;;
16270;SDS011;8243;49.048;8.396;2022-07-29T03:25:17;5.97;;;5.37;;
16270;SDS011;8243;49.048;8.396;2022-07-29T03:27:44;5.97;;;5.47;;
16270;SDS011;8243;49.048;8.396;2022-07-29T03:30:12;8.57;;;5.90;;
16270;SDS011;8243;49.048;8.396;2022-07-29T03:32:39;9.03;;;5.90;;
16270;SDS011;8243;49.048;8.396;2022-07-29T03:35:06;5.70;;;5.20;;
16270;SDS011;8243;49.048;8.396;2022-07-29T03:37:32;6.57;;;5.73;;
16270;SDS011;8243;49.048;8.396;2022-07-29T03:39:58;6.30;;;5.70;;
16270;SDS011;8243;49.048;8.396;2022-07-29T03:42:27;9.00;;;5.87;;
16270;SDS011;8243;49.048;8.396;2022-07-29T03:44:56;8.87;;;5.57;;
16270;SDS011;8243;49.048;8.396;2022-07-29T03:47:24;6.80;;;5.90;;
16270;SDS011;8243;49.048;8.396;2022-07-29T03:49:53;7.27;;;5.50;;
16270;SDS011;8243;49.048;8.396;2022-07-29T03:52:24;6.33;;;5.83;;
16270;SDS011;8243;49.048;8.396;2022-07-29T03:54:50;7.03;;;6.07;;
16270;SDS011;8243;49.048;8.396;2022-07-29T03:57:17;6.73;;;5.60;;
16270;SDS011;8243;49.048;8.396;2022-07-29T03:59:45;6.23;;;5.57;;
16270;SDS011;8243;49.048;8.396;2022-07-29T04:02:11;6.50;;;5.83;;
16270;SDS011;8243;49.048;8.396;2022-07-29T04:04:41;8.17;;;5.80;;
16270;SDS011;8243;49.048;8.396;2022-07-29T04:07:06;6.80;;;5.50;;
16270;SDS011;8243;49.048;8.396;2022-07-29T04:09:36;5.43;;;4.93;;
16270;SDS011;8243;49.048;8.396;2022-07-29T04:12:01;5.97;;;5.20;;
16270;SDS011;8243;49.048;8.396;2022-07-29T04:14:27;5.77;;;5.27;;
16270;SDS011;8243;49.048;8.396;2022-07-29T04:16:53;5.80;;;5.27;;
16270;SDS011;8243;49.048;8.396;2022-07-29T04:19:19;8.70;;;6.03;;
16270;SDS011;8243;49.048;8.396;2022-07-29T04:21:44;6.20;;;5.60;;
16270;SDS011;8243;49.048;8.396;2022-07-29T04:24:10;6.40;;;5.80;;
16270;SDS011;8243;49.048;8.396;2022-07-29T04:26:36;6.47;;;5.97;;
16270;SDS011;8243;49.048;8.396;2022-07-29T04:29:02;6.10;;;5.57;;
16270;SDS011;8243;49.048;8.396;2022-07-29T04:31:27;7.77;;;5.97;;
16270;SDS011;8243;49.048;8.396;2022-07-29T04:33:53;6.17;;;5.60;;
16270;SDS011;8243;49.048;8.396;2022-07-29T04:36:18;6.27;;;5.73;;
16270;SDS011;8243;49.048;8.396;2022-07-29T04:38:44;6.20;;;5.60;;
16270;SDS011;8243;49.048;8.396;2022-07-29T04:41:10;6.93;;;5.50;;
16270;SDS011;8243;49.048;8.396;2022-07-29T04:43:35;6.13;;;5.53;;
16270;SDS011;8243;49.048;8.396;2022-07-29T04:46:02;6.90;;;6.17;;
16270;SDS011;8243;49.048;8.396;2022-07-29T04:48:28;6.03;;;5.40;;
16270;SDS011;8243;49.048;8.396;2022-07-29T04:50:55;5.97;;;4.87;;
16270;SDS011;8243;49.048;8.396;2022-07-29T04:53:21;5.50;;;5.00;;
16270;SDS011;8243;49.048;8.396;2022-07-29T04:55:47;5.77;;;4.70;;
16270;SDS011;8243;49.048;8.396;2022-07-29T04:58:12;5.77;;;4.57;;
16270;SDS011;8243;49.048;8.396;2022-07-29T05:00:38;6.00;;;5.07;;
16270;SDS011;8243;49.048;8.396;2022-07-29T05:03:05;5.77;;;5.27;;
16270;SDS011;8243;49.048;8.396;2022-07-29T05:05:30;6.17;;;5.17;;
16270;SDS011;8243;49.048;8.396;2022-07-29T05:07:56;5.47;;;4.80;;
16270;SDS011;8243;49.048;8.396;2022-07-29T05:10:22;6.97;;;4.87;;
16270;SDS011;8243;49.048;8.396;2022-07-29T05:12:48;6.73;;;4.90;;
16270;SDS011;8243;49.048;8.396;2022-07-29T05:15:14;5.67;;;5.17;;
16270;SDS011;8243;49.048;8.396;2022-07-29T05:17:42;6.73;;;5.53;;
16270;SDS011;8243;49.048;8.396;2022-07-29T05:20:12;7.03;;;5.00;;
16270;SDS011;8243;49.048;8.396;2022-07-29T05:22:37;5.87;;;5.37;;
16270;SDS011;8243;49.048;8.396;2022-07-29T05:25:03;7.60;;;4.73;;
16270;SDS011;8243;49.048;8.396;2022-07-29T05:27:29;4.80;;;4.40;;
16270;SDS011;8243;49.048;8.396;2022-07-29T05:29:55;5.10;;;4.60;;
16270;SDS011;8243;49.048;8.396;2022-07-29T05:32:21;6.60;;;4.73;;
16270;SDS011;8243;49.048;8.396;2022-07-29T05:34:46;4.97;;;4.47;;
16270;SDS011;8243;49.048;8.396;2022-07-29T05:37:12;6.00;;;4.47;;
16270;SDS011;8243;49.048;8.396;2022-07-29T05:39:38;4.97;;;4.57;;
16270;SDS011;8243;49.048;8.396;2022-07-29T05:42:10;6.30;;;5.17;;
16270;SDS011;8243;49.048;8.396;2022-07-29T05:44:37;8.43;;;5.30;;
16270;SDS011;8243;49.048;8.396;2022-07-29T05:47:03;5.87;;;4.20;;
16270;SDS011;8243;49.048;8.396;2022-07-29T05:49:28;5.57;;;4.97;;
16270;SDS011;8243;49.048;8.396;2022-07-29T05:51:54;6.53;;;4.73;;
16270;SDS011;8243;49.048;8.396;2022-07-29T05:54:19;9.23;;;4.67;;
16270;SDS011;8243;49.048;8.396;2022-07-29T05:56:45;11.40;;;4.27;;
16270;SDS011;8243;49.048;8.396;2022-07-29T05:59:11;9.37;;;4.07;;
16270;SDS011;8243;49.048;8.396;2022-07-29T06:01:36;6.37;;;4.03;;
16270;SDS011;8243;49.048;8.396;2022-07-29T06:04:04;8.73;;;4.10;;
16270;SDS011;8243;49.048;8.396;2022-07-29T06:06:31;7.33;;;4.30;;
16270;SDS011;8243;49.048;8.396;2022-07-29T06:08:58;11.27;;;3.93;;
16270;SDS011;8243;49.048;8.396;2022-07-29T06:11:24;5.30;;;3.70;;
16270;SDS011;8243;49.048;8.396;2022-07-29T06:13:49;8.17;;;4.37;;
16270;SDS011;8243;49.048;8.396;2022-07-29T06:16:16;7.20;;;4.00;;
16270;SDS011;8243;49.048;8.396;2022-07-29T06:18:41;7.20;;;3.80;;
16270;SDS011;8243;49.048;8.396;2022-07-29T06:21:08;8.60;;;3.87;;
16270;SDS011;8243;49.048;8.396;2022-07-29T06:23:35;10.23;;;3.80;;
16270;SDS011;8243;49.048;8.396;2022-07-29T06:26:04;6.17;;;4.10;;
16270;SDS011;8243;49.048;8.396;2022-07-29T06:28:51;7.77;;;3.93;;
16270;SDS011;8243;49.048;8.396;2022-07-29T06:31:17;7.53;;;4.30;;
16270;SDS011;8243;49.048;8.396;2022-07-29T06:33:42;7.10;;;4.20;;
16270;SDS011;8243;49.048;8.396;2022-07-29T06:36:08;5.50;;;4.10;;
16270;SDS011;8243;49.048;8.396;2022-07-29T06:38:34;9.67;;;4.93;;
16270;SDS011;8243;49.048;8.396;2022-07-29T06:41:03;5.17;;;4.47;;
16270;SDS011;8243;49.048;8.396;2022-07-29T06:46:03;7.37;;;4.67;;
16270;SDS011;8243;49.048;8.396;2022-07-29T06:48:31;6.13;;;4.47;;
16270;SDS011;8243;49.048;8.396;2022-07-29T06:50:57;5.47;;;3.43;;
16270;SDS011;8243;49.048;8.396;2022-07-29T06:53:24;5.13;;;4.40;;
16270;SDS011;8243;49.048;8.396;2022-07-29T06:55:49;7.80;;;3.87;;
16270;SDS011;8243;49.048;8.396;2022-07-29T06:58:15;5.13;;;3.50;;
16270;SDS011;8243;49.048;8.396;2022-07-29T07:00:43;5.37;;;3.80;;
16270;SDS011;8243;49.048;8.396;2022-07-29T07:03:10;7.77;;;4.00;;
16270;SDS011;8243;49.048;8.396;2022-07-29T07:05:36;7.80;;;4.10;;
16270;SDS011;8243;49.048;8.396;2022-07-29T07:08:01;5.63;;;3.83;;
16270;SDS011;8243;49.048;8.396;2022-07-29T07:10:28;9.80;;;3.90;;
16270;SDS011;8243;49.048;8.396;2022-07-29T07:12:54;4.23;;;3.63;;
16270;SDS011;8243;49.048;8.396;2022-07-29T07:15:20;7.73;;;3.47;;
16270;SDS011;8243;49.048;8.396;2022-07-29T07:17:48;3.60;;;3.27;;
16270;SDS011;8243;49.048;8.396;2022-07-29T07:20:14;4.27;;;3.07;;
16270;SDS011;8243;49.048;8.396;2022-07-29T07:22:40;4.60;;;3.27;;
16270;SDS011;8243;49.048;8.396;2022-07-29T07:25:06;4.80;;;3.43;;
16270;SDS011;8243;49.048;8.396;2022-07-29T07:27:32;8.07;;;5.53;;
16270;SDS011;8243;49.048;8.396;2022-07-29T07:29:58;6.23;;;3.10;;
16270;SDS011;8243;49.048;8.396;2022-07-29T07:32:23;4.03;;;3.60;;
16270;SDS011;8243;49.048;8.396;2022-07-29T07:34:49;5.17;;;2.90;;
16270;SDS011;8243;49.048;8.396;2022-07-29T07:37:14;7.33;;;3.20;;
16270;SDS011;8243;49.048;8.396;2022-07-29T07:39:41;4.53;;;3.23;;
16270;SDS011;8243;49.048;8.396;2022-07-29T07:42:06;6.83;;;3.43;;
16270;SDS011;8243;49.048;8.396;2022-07-29T07:44:32;5.23;;;3.47;;
16270;SDS011;8243;49.048;8.396;2022-07-29T07:46:57;6.30;;;3.40;;
16270;SDS011;8243;49.048;8.396;2022-07-29T07:49:23;5.33;;;4.23;;
16270;SDS011;8243;49.048;8.396;2022-07-29T07:51:48;6.37;;;3.93;;
16270;SDS011;8243;49.048;8.396;2022-07-29T07:54:14;6.57;;;3.60;;
16270;SDS011;8243;49.048;8.396;2022-07-29T07:56:40;7.90;;;3.60;;
16270;SDS011;8243;49.048;8.396;2022-07-29T07:59:05;6.03;;;3.10;;
16270;SDS011;8243;49.048;8.396;2022-07-29T08:01:31;6.07;;;3.30;;
16270;SDS011;8243;49.048;8.396;2022-07-29T08:03:56;6.10;;;3.60;;
16270;SDS011;8243;49.048;8.396;2022-07-29T08:06:22;7.27;;;3.60;;
16270;SDS011;8243;49.048;8.396;2022-07-29T08:08:49;6.37;;;3.27;;
16270;SDS011;8243;49.048;8.396;2022-07-29T08:11:15;3.83;;;3.20;;
16270;SDS011;8243;49.048;8.396;2022-07-29T08:13:41;5.23;;;3.07;;
16270;SDS011;8243;49.048;8.396;2022-07-29T08:16:08;5.43;;;2.93;;
16270;SDS011;8243;49.048;8.396;2022-07-29T08:18:37;4.23;;;3.13;;
16270;SDS011;8243;49.048;8.396;2022-07-29T08:21:03;4.07;;;3.00;;
16270;SDS011;8243;49.048;8.396;2022-07-29T08:23:50;3.83;;;2.80;;
16270;SDS011;8243;49.048;8.396;2022-07-29T08:26:39;6.00;;;2.80;;
16270;SDS011;8243;49.048;8.396;2022-07-29T08:29:05;4.33;;;2.90;;
16270;SDS011;8243;49.048;8.396;2022-07-29T08:31:31;3.10;;;2.80;;
16270;SDS011;8243;49.048;8.396;2022-07-29T08:33:56;4.47;;;2.87;;
16270;SDS011;8243;49.048;8.396;2022-07-29T08:36:24;6.03;;;2.60;;
16270;SDS011;8243;49.048;8.396;2022-07-29T08:38:50;6.47;;;2.73;;
16270;SDS011;8243;49.048;8.396;2022-07-29T08:41:16;4.13;;;2.70;;
16270;SDS011;8243;49.048;8.396;2022-07-29T08:43:43;6.13;;;2.90;;
16270;SDS011;8243;49.048;8.396;2022-07-29T08:46:09;3.73;;;2.70;;
16270;SDS011;8243;49.048;8.396;2022-07-29T08:48:35;3.03;;;2.60;;
16270;SDS011;8243;49.048;8.396;2022-07-29T08:51:01;3.73;;;2.53;;
16270;SDS011;8243;49.048;8.396;2022-07-29T08:53:28;2.83;;;2.50;;
16270;SDS011;8243;49.048;8.396;2022-07-29T08:55:54;5.63;;;2.73;;
16270;SDS011;8243;49.048;8.396;2022-07-29T08:58:20;10.70;;;2.80;;
16270;SDS011;8243;49.048;8.396;2022-07-29T09:00:50;4.87;;;2.50;;
16270;SDS011;8243;49.048;8.396;2022-07-29T09:03:18;7.57;;;2.63;;
16270;SDS011;8243;49.048;8.396;2022-07-29T09:05:46;5.97;;;2.43;;
16270;SDS011;8243;49.048;8.396;2022-07-29T09:08:13;3.90;;;2.20;;
16270;SDS011;8243;49.048;8.396;2022-07-29T09:10:40;5.07;;;2.70;;
16270;SDS011;8243;49.048;8.396;2022-07-29T09:13:05;5.27;;;2.50;;
16270;SDS011;8243;49.048;8.396;2022-07-29T09:15:31;3.40;;;2.40;;
16270;SDS011;8243;49.048;8.396;2022-07-29T09:17:57;3.27;;;2.30;;
16270;SDS011;8243;49.048;8.396;2022-07-29T09:20:24;4.50;;;2.43;;
16270;SDS011;8243;49.048;8.396;2022-07-29T09:22:50;6.17;;;2.40;;
16270;SDS011;8243;49.048;8.396;2022-07-29T09:25:37;9.50;;;2.30;;
16270;SDS011;8243;49.048;8.396;2022-07-29T09:30:49;3.07;;;2.13;;
16270;SDS011;8243;49.048;8.396;2022-07-29T09:33:20;6.07;;;2.70;;
16270;SDS011;8243;49.048;8.396;2022-07-29T09:35:46;5.43;;;2.37;;
16270;SDS011;8243;49.048;8.396;2022-07-29T09:38:24;5.37;;;2.13;;
16270;SDS011;8243;49.048;8.396;2022-07-29T09:40:56;5.50;;;2.57;;
16270;SDS011;8243;49.048;8.396;2022-07-29T09:43:22;5.50;;;2.60;;
16270;SDS011;8243;49.048;8.396;2022-07-29T09:45:48;4.27;;;2.50;;
16270;SDS011;8243;49.048;8.396;2022-07-29T09:48:18;6.47;;;2.50;;
16270;SDS011;8243;49.048;8.396;2022-07-29T09:50:46;5.80;;;2.50;;
16270;SDS011;8243;49.048;8.396;2022-07-29T09:53:30;4.07;;;2.37;;
16270;SDS011;8243;49.048;8.396;2022-07-29T09:55:57;6.60;;;2.67;;
16270;SDS011;8243;49.048;8.396;2022-07-29T09:58:22;4.50;;;2.50;;
16270;SDS011;8243;49.048;8.396;2022-07-29T10:00:49;8.80;;;2.67;;
16270;SDS011;8243;49.048;8.396;2022-07-29T10:03:15;5.73;;;2.30;;
16270;SDS011;8243;49.048;8.396;2022-07-29T10:05:42;4.47;;;2.27;;
16270;SDS011;8243;49.048;8.396;2022-07-29T10:08:09;5.87;;;2.50;;
16270;SDS011;8243;49.048;8.396;2022-07-29T10:10:36;4.10;;;2.70;;
16270;SDS011;8243;49.048;8.396;2022-07-29T10:13:07;3.43;;;2.30;;
16270;SDS011;8243;49.048;8.396;2022-07-29T10:15:40;3.27;;;2.37;;
16270;SDS011;8243;49.048;8.396;2022-07-29T10:18:10;6.53;;;2.20;;
16270;SDS011;8243;49.048;8.396;2022-07-29T10:20:37;3.90;;;2.10;;
16270;SDS011;8243;49.048;8.396;2022-07-29T10:23:03;3.03;;;2.30;;
16270;SDS011;8243;49.048;8.396;2022-07-29T10:25:29;4.20;;;2.43;;
16270;SDS011;8243;49.048;8.396;2022-07-29T10:27:55;5.97;;;2.60;;
16270;SDS011;8243;49.048;8.396;2022-07-29T10:30:22;5.70;;;2.40;;
16270;SDS011;8243;49.048;8.396;2022-07-29T10:33:05;4.37;;;2.60;;
16270;SDS011;8243;49.048;8.396;2022-07-29T10:44:18;6.93;;;2.50;;
16270;SDS011;8243;49.048;8.396;2022-07-29T10:46:46;2.57;;;2.23;;
16270;SDS011;8243;49.048;8.396;2022-07-29T10:49:16;4.50;;;2.50;;
16270;SDS011;8243;49.048;8.396;2022-07-29T10:54:42;6.47;;;2.20;;
16270;SDS011;8243;49.048;8.396;2022-07-29T10:59:44;4.77;;;2.67;;
16270;SDS011;8243;49.048;8.396;2022-07-29T11:05:15;4.67;;;2.67;;
16270;SDS011;8243;49.048;8.396;2022-07-29T11:10:37;6.27;;;2.50;;
16270;SDS011;8243;49.048;8.396;2022-07-29T11:13:03;3.17;;;2.43;;
16270;SDS011;8243;49.048;8.396;2022-07-29T11:15:29;4.00;;;2.17;;
16270;SDS011;8243;49.048;8.396;2022-07-29T11:18:18;4.77;;;2.70;;
16270;SDS011;8243;49.048;8.396;2022-07-29T11:20:45;3.13;;;2.50;;
16270;SDS011;8243;49.048;8.396;2022-07-29T11:23:21;4.47;;;2.73;;
16270;SDS011;8243;49.048;8.396;2022-07-29T11:31:41;3.40;;;2.60;;
16270;SDS011;8243;49.048;8.396;2022-07-29T11:39:34;3.87;;;2.53;;
16270;SDS011;8243;49.048;8.396;2022-07-29T11:47:31;5.23;;;2.70;;
16270;SDS011;8243;49.048;8.396;2022-07-29T11:50:02;4.47;;;2.53;;
16270;SDS011;8243;49.048;8.396;2022-07-29T11:52:36;4.93;;;2.53;;
16270;SDS011;8243;49.048;8.396;2022-07-29T11:55:20;3.60;;;2.50;;
16270;SDS011;8243;49.048;8.396;2022-07-29T12:00:21;7.57;;;2.97;;
16270;SDS011;8243;49.048;8.396;2022-07-29T12:02:51;3.33;;;2.30;;
16270;SDS011;8243;49.048;8.396;2022-07-29T12:05:17;3.73;;;2.30;;
16270;SDS011;8243;49.048;8.396;2022-07-29T12:07:43;3.57;;;2.30;;
16270;SDS011;8243;49.048;8.396;2022-07-29T12:10:09;2.87;;;2.37;;
16270;SDS011;8243;49.048;8.396;2022-07-29T12:12:35;5.57;;;2.67;;
16270;SDS011;8243;49.048;8.396;2022-07-29T12:15:10;2.90;;;2.70;;
16270;SDS011;8243;49.048;8.396;2022-07-29T12:17:38;6.83;;;2.53;;
16270;SDS011;8243;49.048;8.396;2022-07-29T12:20:04;3.90;;;2.67;;
16270;SDS011;8243;49.048;8.396;2022-07-29T12:22:40;2.27;;;2.07;;
16270;SDS011;8243;49.048;8.396;2022-07-29T12:25:08;2.87;;;2.00;;
16270;SDS011;8243;49.048;8.396;2022-07-29T12:27:39;6.43;;;2.10;;
16270;SDS011;8243;49.048;8.396;2022-07-29T12:30:06;2.73;;;2.17;;
16270;SDS011;8243;49.048;8.396;2022-07-29T12:35:04;2.87;;;2.37;;
16270;SDS011;8243;49.048;8.396;2022-07-29T12:37:33;4.30;;;1.97;;
16270;SDS011;8243;49.048;8.396;2022-07-29T12:40:00;6.63;;;2.30;;
16270;SDS011;8243;49.048;8.396;2022-07-29T12:42:27;2.73;;;2.00;;
16270;SDS011;8243;49.048;8.396;2022-07-29T12:44:53;5.30;;;2.10;;
16270;SDS011;8243;49.048;8.396;2022-07-29T12:47:19;4.33;;;2.10;;
16270;SDS011;8243;49.048;8.396;2022-07-29T12:49:45;4.07;;;1.83;;
16270;SDS011;8243;49.048;8.396;2022-07-29T12:55:05;3.93;;;1.90;;
16270;SDS011;8243;49.048;8.396;2022-07-29T12:57:31;2.27;;;1.73;;
16270;SDS011;8243;49.048;8.396;2022-07-29T13:00:09;5.30;;;1.90;;
16270;SDS011;8243;49.048;8.396;2022-07-29T13:02:37;5.73;;;2.10;;
16270;SDS011;8243;49.048;8.396;2022-07-29T13:05:04;3.70;;;1.77;;
16270;SDS011;8243;49.048;8.396;2022-07-29T13:07:31;2.77;;;1.60;;
16270;SDS011;8243;49.048;8.396;2022-07-29T13:13:04;4.60;;;1.73;;
16270;SDS011;8243;49.048;8.396;2022-07-29T13:15:37;2.60;;;1.80;;
16270;SDS011;8243;49.048;8.396;2022-07-29T13:18:04;4.17;;;1.87;;
16270;SDS011;8243;49.048;8.396;2022-07-29T13:20:30;4.20;;;1.83;;
16270;SDS011;8243;49.048;8.396;2022-07-29T13:22:57;6.13;;;2.10;;
16270;SDS011;8243;49.048;8.396;2022-07-29T13:25:30;2.80;;;1.80;;
16270;SDS011;8243;49.048;8.396;2022-07-29T13:27:57;3.37;;;1.83;;
16270;SDS011;8243;49.048;8.396;2022-07-29T13:30:23;2.50;;;2.00;;
16270;SDS011;8243;49.048;8.396;2022-07-29T13:32:50;3.53;;;2.00;;
16270;SDS011;8243;49.048;8.396;2022-07-29T13:35:18;4.80;;;2.10;;
16270;SDS011;8243;49.048;8.396;2022-07-29T13:37:44;8.93;;;6.70;;
16270;SDS011;8243;49.048;8.396;2022-07-29T13:40:10;6.53;;;5.93;;
16270;SDS011;8243;49.048;8.396;2022-07-29T13:42:38;10.83;;;9.77;;
16270;SDS011;8243;49.048;8.396;2022-07-29T13:45:04;7.43;;;4.47;;
16270;SDS011;8243;49.048;8.396;2022-07-29T13:47:31;4.43;;;2.53;;
16270;SDS011;8243;49.048;8.396;2022-07-29T13:49:57;6.40;;;1.77;;
16270;SDS011;8243;49.048;8.396;2022-07-29T13:52:23;2.93;;;1.67;;
16270;SDS011;8243;49.048;8.396;2022-07-29T13:54:49;3.73;;;2.10;;
16270;SDS011;8243;49.048;8.396;2022-07-29T13:57:15;8.10;;;2.13;;
16270;SDS011;8243;49.048;8.396;2022-07-29T13:59:42;2.63;;;1.70;;
16270;SDS011;8243;49.048;8.396;2022-07-29T14:02:08;2.07;;;1.60;;
16270;SDS011;8243;49.048;8.396;2022-07-29T14:04:35;3.20;;;1.70;;
16270;SDS011;8243;49.048;8.396;2022-07-29T14:07:01;3.00;;;1.87;;
16270;SDS011;8243;49.048;8.396;2022-07-29T14:09:27;3.07;;;1.80;;
16270;SDS011;8243;49.048;8.396;2022-07-29T14:11:53;3.07;;;1.63;;
16270;SDS011;8243;49.048;8.396;2022-07-29T14:14:18;1.83;;;1.53;;
16270;SDS011;8243;49.048;8.396;2022-07-29T14:16:45;3.03;;;1.67;;
16270;SDS011;8243;49.048;8.396;2022-07-29T14:19:11;4.57;;;2.00;;
16270;SDS011;8243;49.048;8.396;2022-07-29T14:21:37;2.80;;;1.70;;
16270;SDS011;8243;49.048;8.396;2022-07-29T14:24:04;2.77;;;1.40;;
16270;SDS011;8243;49.048;8.396;2022-07-29T14:26:30;2.67;;;1.70;;
16270;SDS011;8243;49.048;8.396;2022-07-29T14:28:55;4.73;;;1.60;;
16270;SDS011;8243;49.048;8.396;2022-07-29T14:31:21;4.03;;;1.87;;
16270;SDS011;8243;49.048;8.396;2022-07-29T14:33:47;4.30;;;1.50;;
16270;SDS011;8243;49.048;8.396;2022-07-29T14:36:24;3.47;;;1.50;;
16270;SDS011;8243;49.048;8.396;2022-07-29T14:38:51;4.07;;;1.60;;
16270;SDS011;8243;49.048;8.396;2022-07-29T14:41:18;3.03;;;1.60;;
16270;SDS011;8243;49.048;8.396;2022-07-29T14:43:43;7.67;;;1.97;;
16270;SDS011;8243;49.048;8.396;2022-07-29T14:46:09;4.73;;;2.00;;
16270;SDS011;8243;49.048;8.396;2022-07-29T14:48:35;4.07;;;1.77;;
16270;SDS011;8243;49.048;8.396;2022-07-29T14:51:01;5.77;;;1.80;;
16270;SDS011;8243;49.048;8.396;2022-07-29T14:53:26;7.37;;;1.73;;
16270;SDS011;8243;49.048;8.396;2022-07-29T14:55:53;3.47;;;2.03;;
16270;SDS011;8243;49.048;8.396;2022-07-29T14:58:18;4.07;;;1.80;;
16270;SDS011;8243;49.048;8.396;2022-07-29T15:00:46;4.57;;;2.00;;
16270;SDS011;8243;49.048;8.396;2022-07-29T15:03:14;7.30;;;1.87;;
16270;SDS011;8243;49.048;8.396;2022-07-29T15:05:40;2.70;;;1.47;;
16270;SDS011;8243;49.048;8.396;2022-07-29T15:08:07;2.90;;;1.47;;
16270;SDS011;8243;49.048;8.396;2022-07-29T15:10:33;4.33;;;1.80;;
16270;SDS011;8243;49.048;8.396;2022-07-29T15:12:58;5.83;;;1.90;;
16270;SDS011;8243;49.048;8.396;2022-07-29T15:15:24;3.77;;;1.73;;
16270;SDS011;8243;49.048;8.396;2022-07-29T15:17:50;1.70;;;1.40;;
16270;SDS011;8243;49.048;8.396;2022-07-29T15:20:16;2.30;;;1.50;;
16270;SDS011;8243;49.048;8.396;2022-07-29T15:22:41;3.43;;;1.80;;
16270;SDS011;8243;49.048;8.396;2022-07-29T15:25:07;6.93;;;2.20;;
16270;SDS011;8243;49.048;8.396;2022-07-29T15:27:33;5.80;;;1.50;;
16270;SDS011;8243;49.048;8.396;2022-07-29T15:29:59;4.47;;;1.77;;
16270;SDS011;8243;49.048;8.396;2022-07-29T15:32:24;4.50;;;1.50;;
16270;SDS011;8243;49.048;8.396;2022-07-29T15:34:50;2.53;;;1.50;;
16270;SDS011;8243;49.048;8.396;2022-07-29T15:37:15;2.47;;;1.83;;
16270;SDS011;8243;49.048;8.396;2022-07-29T15:39:41;2.17;;;1.60;;
16270;SDS011;8243;49.048;8.396;2022-07-29T15:42:10;2.70;;;1.60;;
16270;SDS011;8243;49.048;8.396;2022-07-29T15:44:36;5.57;;;1.73;;
16270;SDS011;8243;49.048;8.396;2022-07-29T15:47:04;3.03;;;1.70;;
16270;SDS011;8243;49.048;8.396;2022-07-29T15:49:34;4.80;;;1.57;;
16270;SDS011;8243;49.048;8.396;2022-07-29T15:52:06;1.93;;;1.37;;
16270;SDS011;8243;49.048;8.396;2022-07-29T15:54:34;3.03;;;1.80;;
16270;SDS011;8243;49.048;8.396;2022-07-29T15:57:01;3.40;;;1.50;;
16270;SDS011;8243;49.048;8.396;2022-07-29T15:59:32;2.07;;;1.60;;
16270;SDS011;8243;49.048;8.396;2022-07-29T16:02:06;9.50;;;1.80;;
16270;SDS011;8243;49.048;8.396;2022-07-29T16:04:32;4.03;;;1.40;;
16270;SDS011;8243;49.048;8.396;2022-07-29T16:07:10;2.93;;;1.57;;
16270;SDS011;8243;49.048;8.396;2022-07-29T16:09:39;4.93;;;1.50;;
16270;SDS011;8243;49.048;8.396;2022-07-29T16:12:05;3.97;;;1.57;;